sensor_id;sensor_type;location;lat;lon;timestamp;P1;durP1;ratioP1;P2;durP2;ratioP2
29916;SDS011;16786;49.466;11.068;2022-09-09T00:00:32;6.18;;;3.17;;
29916;SDS011;16786;49.466;11.068;2022-09-09T00:11:19;5.70;;;3.05;;
29916;SDS011;16786;49.466;11.068;2022-09-09T00:13:57;5.15;;;2.90;;
29916;SDS011;16786;49.466;11.068;2022-09-09T00:16:28;7.10;;;3.42;;
29916;SDS011;16786;49.466;11.068;2022-09-09T00:21:53;4.82;;;3.15;;
29916;SDS011;16786;49.466;11.068;2022-09-09T00:24:30;10.43;;;3.30;;
29916;SDS011;16786;49.466;11.068;2022-09-09T00:27:13;8.02;;;2.60;;
29916;SDS011;16786;49.466;11.068;2022-09-09T00:30:17;5.70;;;2.97;;
29916;SDS011;16786;49.466;11.068;2022-09-09T00:32:47;5.20;;;2.88;;
29916;SDS011;16786;49.466;11.068;2022-09-09T00:35:27;6.63;;;2.80;;
29916;SDS011;16786;49.466;11.068;2022-09-09T00:40:49;4.43;;;2.65;;
29916;SDS011;16786;49.466;11.068;2022-09-09T00:43:38;3.97;;;2.53;;
29916;SDS011;16786;49.466;11.068;2022-09-09T00:55:11;6.15;;;2.72;;
29916;SDS011;16786;49.466;11.068;2022-09-09T00:58:15;3.85;;;2.67;;
29916;SDS011;16786;49.466;11.068;2022-09-09T01:06:01;4.05;;;2.80;;
29916;SDS011;16786;49.466;11.068;2022-09-09T01:11:28;4.45;;;2.80;;
29916;SDS011;16786;49.466;11.068;2022-09-09T01:20:14;5.55;;;2.85;;
29916;SDS011;16786;49.466;11.068;2022-09-09T01:26:24;4.03;;;2.47;;
29916;SDS011;16786;49.466;11.068;2022-09-09T01:29:00;6.88;;;2.78;;
29916;SDS011;16786;49.466;11.068;2022-09-09T01:31:39;5.80;;;2.90;;
29916;SDS011;16786;49.466;11.068;2022-09-09T01:34:10;11.75;;;3.03;;
29916;SDS011;16786;49.466;11.068;2022-09-09T01:39:35;5.97;;;3.10;;
29916;SDS011;16786;49.466;11.068;2022-09-09T01:42:08;4.80;;;2.63;;
29916;SDS011;16786;49.466;11.068;2022-09-09T01:44:38;4.28;;;2.70;;
29916;SDS011;16786;49.466;11.068;2022-09-09T01:47:06;4.65;;;2.63;;
29916;SDS011;16786;49.466;11.068;2022-09-09T01:52:13;5.95;;;2.80;;
29916;SDS011;16786;49.466;11.068;2022-09-09T01:54:41;5.35;;;2.88;;
29916;SDS011;16786;49.466;11.068;2022-09-09T02:03:25;6.20;;;2.50;;
29916;SDS011;16786;49.466;11.068;2022-09-09T02:08:45;5.68;;;2.75;;
29916;SDS011;16786;49.466;11.068;2022-09-09T02:11:22;5.63;;;2.72;;
29916;SDS011;16786;49.466;11.068;2022-09-09T02:16:34;3.60;;;2.70;;
29916;SDS011;16786;49.466;11.068;2022-09-09T02:19:16;6.05;;;2.58;;
29916;SDS011;16786;49.466;11.068;2022-09-09T02:22:01;4.50;;;2.45;;
29916;SDS011;16786;49.466;11.068;2022-09-09T02:24:29;4.65;;;2.90;;
29916;SDS011;16786;49.466;11.068;2022-09-09T02:27:22;6.28;;;2.90;;
29916;SDS011;16786;49.466;11.068;2022-09-09T02:29:51;6.45;;;2.80;;
29916;SDS011;16786;49.466;11.068;2022-09-09T02:32:32;4.40;;;2.75;;
29916;SDS011;16786;49.466;11.068;2022-09-09T02:37:37;7.90;;;2.72;;
29916;SDS011;16786;49.466;11.068;2022-09-09T02:40:06;6.35;;;2.90;;
29916;SDS011;16786;49.466;11.068;2022-09-09T02:42:41;6.22;;;2.65;;
29916;SDS011;16786;49.466;11.068;2022-09-09T02:45:12;4.18;;;2.70;;
29916;SDS011;16786;49.466;11.068;2022-09-09T02:47:49;3.22;;;2.22;;
29916;SDS011;16786;49.466;11.068;2022-09-09T02:50:41;5.65;;;2.72;;
29916;SDS011;16786;49.466;11.068;2022-09-09T02:53:32;6.35;;;2.88;;
29916;SDS011;16786;49.466;11.068;2022-09-09T02:56:09;3.50;;;2.40;;
29916;SDS011;16786;49.466;11.068;2022-09-09T02:58:45;6.10;;;2.83;;
29916;SDS011;16786;49.466;11.068;2022-09-09T03:01:13;5.85;;;2.80;;
29916;SDS011;16786;49.466;11.068;2022-09-09T03:03:41;9.48;;;3.03;;
29916;SDS011;16786;49.466;11.068;2022-09-09T03:06:12;6.13;;;3.00;;
29916;SDS011;16786;49.466;11.068;2022-09-09T03:08:42;5.85;;;2.70;;
29916;SDS011;16786;49.466;11.068;2022-09-09T03:11:19;4.53;;;2.65;;
29916;SDS011;16786;49.466;11.068;2022-09-09T03:13:47;4.30;;;2.60;;
29916;SDS011;16786;49.466;11.068;2022-09-09T03:16:15;8.98;;;2.92;;
29916;SDS011;16786;49.466;11.068;2022-09-09T03:18:46;6.57;;;2.92;;
29916;SDS011;16786;49.466;11.068;2022-09-09T03:21:14;3.97;;;2.53;;
29916;SDS011;16786;49.466;11.068;2022-09-09T03:23:43;4.93;;;2.50;;
29916;SDS011;16786;49.466;11.068;2022-09-09T03:26:11;5.32;;;2.75;;
29916;SDS011;16786;49.466;11.068;2022-09-09T03:28:44;5.65;;;2.88;;
29916;SDS011;16786;49.466;11.068;2022-09-09T03:31:15;5.53;;;2.55;;
29916;SDS011;16786;49.466;11.068;2022-09-09T03:33:43;4.88;;;2.88;;
29916;SDS011;16786;49.466;11.068;2022-09-09T03:36:14;4.75;;;2.80;;
29916;SDS011;16786;49.466;11.068;2022-09-09T03:38:41;5.22;;;2.70;;
29916;SDS011;16786;49.466;11.068;2022-09-09T03:41:09;4.85;;;2.58;;
29916;SDS011;16786;49.466;11.068;2022-09-09T03:43:38;5.63;;;3.15;;
29916;SDS011;16786;49.466;11.068;2022-09-09T03:46:05;7.47;;;3.20;;
29916;SDS011;16786;49.466;11.068;2022-09-09T03:48:32;4.53;;;3.03;;
29916;SDS011;16786;49.466;11.068;2022-09-09T03:51:00;7.07;;;3.20;;
29916;SDS011;16786;49.466;11.068;2022-09-09T03:53:30;5.28;;;2.83;;
29916;SDS011;16786;49.466;11.068;2022-09-09T03:55:58;5.38;;;3.10;;
29916;SDS011;16786;49.466;11.068;2022-09-09T03:58:28;6.13;;;2.83;;
29916;SDS011;16786;49.466;11.068;2022-09-09T04:01:04;6.53;;;2.70;;
29916;SDS011;16786;49.466;11.068;2022-09-09T04:03:36;6.55;;;3.13;;
29916;SDS011;16786;49.466;11.068;2022-09-09T04:06:04;4.35;;;2.97;;
29916;SDS011;16786;49.466;11.068;2022-09-09T04:08:34;7.97;;;3.08;;
29916;SDS011;16786;49.466;11.068;2022-09-09T04:11:03;4.82;;;2.97;;
29916;SDS011;16786;49.466;11.068;2022-09-09T04:13:34;6.35;;;3.13;;
29916;SDS011;16786;49.466;11.068;2022-09-09T04:18:34;9.23;;;3.38;;
29916;SDS011;16786;49.466;11.068;2022-09-09T04:21:02;5.85;;;3.03;;
29916;SDS011;16786;49.466;11.068;2022-09-09T04:23:32;7.60;;;3.50;;
29916;SDS011;16786;49.466;11.068;2022-09-09T04:26:01;5.75;;;3.30;;
29916;SDS011;16786;49.466;11.068;2022-09-09T04:28:35;5.97;;;2.90;;
29916;SDS011;16786;49.466;11.068;2022-09-09T04:31:16;8.00;;;3.17;;
29916;SDS011;16786;49.466;11.068;2022-09-09T04:33:48;7.78;;;3.05;;
29916;SDS011;16786;49.466;11.068;2022-09-09T04:36:20;5.32;;;2.95;;
29916;SDS011;16786;49.466;11.068;2022-09-09T04:38:49;6.68;;;3.17;;
29916;SDS011;16786;49.466;11.068;2022-09-09T04:41:17;5.50;;;3.10;;
29916;SDS011;16786;49.466;11.068;2022-09-09T04:43:48;6.85;;;3.40;;
29916;SDS011;16786;49.466;11.068;2022-09-09T04:46:16;6.50;;;3.40;;
29916;SDS011;16786;49.466;11.068;2022-09-09T04:48:46;6.97;;;3.13;;
29916;SDS011;16786;49.466;11.068;2022-09-09T04:51:13;5.80;;;3.05;;
29916;SDS011;16786;49.466;11.068;2022-09-09T04:53:43;5.00;;;3.08;;
29916;SDS011;16786;49.466;11.068;2022-09-09T04:56:12;6.07;;;3.10;;
29916;SDS011;16786;49.466;11.068;2022-09-09T04:58:47;8.23;;;3.22;;
29916;SDS011;16786;49.466;11.068;2022-09-09T05:01:16;7.13;;;3.55;;
29916;SDS011;16786;49.466;11.068;2022-09-09T05:06:21;6.30;;;3.00;;
29916;SDS011;16786;49.466;11.068;2022-09-09T05:08:53;9.55;;;3.00;;
29916;SDS011;16786;49.466;11.068;2022-09-09T05:11:27;7.55;;;3.10;;
29916;SDS011;16786;49.466;11.068;2022-09-09T05:14:01;5.28;;;2.85;;
29916;SDS011;16786;49.466;11.068;2022-09-09T05:16:30;5.72;;;2.72;;
29916;SDS011;16786;49.466;11.068;2022-09-09T05:18:58;6.07;;;2.83;;
29916;SDS011;16786;49.466;11.068;2022-09-09T05:21:34;5.00;;;2.92;;
29916;SDS011;16786;49.466;11.068;2022-09-09T05:24:01;7.82;;;3.35;;
29916;SDS011;16786;49.466;11.068;2022-09-09T05:26:29;6.10;;;3.00;;
29916;SDS011;16786;49.466;11.068;2022-09-09T05:28:58;4.47;;;3.05;;
29916;SDS011;16786;49.466;11.068;2022-09-09T05:31:29;8.13;;;3.67;;
29916;SDS011;16786;49.466;11.068;2022-09-09T05:34:00;8.95;;;3.50;;
29916;SDS011;16786;49.466;11.068;2022-09-09T05:36:28;7.60;;;3.75;;
29916;SDS011;16786;49.466;11.068;2022-09-09T05:38:56;5.30;;;3.95;;
29916;SDS011;16786;49.466;11.068;2022-09-09T05:41:25;10.25;;;4.18;;
29916;SDS011;16786;49.466;11.068;2022-09-09T05:43:55;6.72;;;4.15;;
29916;SDS011;16786;49.466;11.068;2022-09-09T05:46:23;9.65;;;3.90;;
29916;SDS011;16786;49.466;11.068;2022-09-09T05:48:53;9.48;;;4.15;;
29916;SDS011;16786;49.466;11.068;2022-09-09T05:51:30;10.00;;;4.20;;
29916;SDS011;16786;49.466;11.068;2022-09-09T05:54:01;7.32;;;3.80;;
29916;SDS011;16786;49.466;11.068;2022-09-09T05:56:32;8.25;;;3.90;;
29916;SDS011;16786;49.466;11.068;2022-09-09T05:59:00;7.53;;;3.30;;
29916;SDS011;16786;49.466;11.068;2022-09-09T06:01:29;8.20;;;3.45;;
29916;SDS011;16786;49.466;11.068;2022-09-09T06:03:59;6.10;;;3.25;;
29916;SDS011;16786;49.466;11.068;2022-09-09T06:06:31;7.25;;;3.38;;
29916;SDS011;16786;49.466;11.068;2022-09-09T06:09:08;7.78;;;3.35;;
29916;SDS011;16786;49.466;11.068;2022-09-09T06:11:40;5.97;;;3.08;;
29916;SDS011;16786;49.466;11.068;2022-09-09T06:14:08;5.35;;;3.30;;
29916;SDS011;16786;49.466;11.068;2022-09-09T06:16:37;7.85;;;3.15;;
29916;SDS011;16786;49.466;11.068;2022-09-09T06:19:11;7.80;;;3.08;;
29916;SDS011;16786;49.466;11.068;2022-09-09T06:21:40;4.95;;;2.83;;
29916;SDS011;16786;49.466;11.068;2022-09-09T06:24:08;9.90;;;4.55;;
29916;SDS011;16786;49.466;11.068;2022-09-09T06:26:39;23.55;;;11.93;;
29916;SDS011;16786;49.466;11.068;2022-09-09T06:29:18;12.45;;;4.68;;
29916;SDS011;16786;49.466;11.068;2022-09-09T06:31:45;10.40;;;3.60;;
29916;SDS011;16786;49.466;11.068;2022-09-09T06:34:21;8.65;;;3.85;;
29916;SDS011;16786;49.466;11.068;2022-09-09T06:39:27;8.50;;;4.53;;
29916;SDS011;16786;49.466;11.068;2022-09-09T06:41:55;9.20;;;4.88;;
29916;SDS011;16786;49.466;11.068;2022-09-09T06:44:44;6.32;;;4.10;;
29916;SDS011;16786;49.466;11.068;2022-09-09T06:47:18;10.15;;;4.40;;
29916;SDS011;16786;49.466;11.068;2022-09-09T06:49:46;9.27;;;4.80;;
29916;SDS011;16786;49.466;11.068;2022-09-09T06:52:15;9.27;;;4.78;;
29916;SDS011;16786;49.466;11.068;2022-09-09T06:54:46;14.02;;;5.20;;
29916;SDS011;16786;49.466;11.068;2022-09-09T06:57:15;9.32;;;4.53;;
29916;SDS011;16786;49.466;11.068;2022-09-09T07:00:02;9.38;;;4.40;;
29916;SDS011;16786;49.466;11.068;2022-09-09T07:02:30;14.50;;;4.10;;
29916;SDS011;16786;49.466;11.068;2022-09-09T07:04:58;6.30;;;4.03;;
29916;SDS011;16786;49.466;11.068;2022-09-09T07:07:25;10.63;;;4.70;;
29916;SDS011;16786;49.466;11.068;2022-09-09T07:09:53;5.47;;;3.90;;
29916;SDS011;16786;49.466;11.068;2022-09-09T07:12:20;7.38;;;3.97;;
29916;SDS011;16786;49.466;11.068;2022-09-09T07:14:56;7.43;;;4.43;;
29916;SDS011;16786;49.466;11.068;2022-09-09T07:17:23;11.38;;;4.40;;
29916;SDS011;16786;49.466;11.068;2022-09-09T07:19:51;7.13;;;4.70;;
29916;SDS011;16786;49.466;11.068;2022-09-09T07:22:20;8.75;;;5.10;;
29916;SDS011;16786;49.466;11.068;2022-09-09T07:24:47;9.40;;;4.97;;
29916;SDS011;16786;49.466;11.068;2022-09-09T07:27:16;11.10;;;4.55;;
29916;SDS011;16786;49.466;11.068;2022-09-09T07:29:43;10.13;;;5.47;;
29916;SDS011;16786;49.466;11.068;2022-09-09T07:32:12;9.55;;;5.57;;
29916;SDS011;16786;49.466;11.068;2022-09-09T07:34:39;6.75;;;4.90;;
29916;SDS011;16786;49.466;11.068;2022-09-09T07:37:07;8.00;;;4.82;;
29916;SDS011;16786;49.466;11.068;2022-09-09T07:39:35;8.27;;;4.90;;
29916;SDS011;16786;49.466;11.068;2022-09-09T07:42:03;6.72;;;4.20;;
29916;SDS011;16786;49.466;11.068;2022-09-09T07:44:31;9.05;;;4.60;;
29916;SDS011;16786;49.466;11.068;2022-09-09T07:47:11;6.78;;;4.38;;
29916;SDS011;16786;49.466;11.068;2022-09-09T07:49:42;8.55;;;4.63;;
29916;SDS011;16786;49.466;11.068;2022-09-09T07:52:10;6.82;;;5.15;;
29916;SDS011;16786;49.466;11.068;2022-09-09T07:54:44;9.00;;;5.13;;
29916;SDS011;16786;49.466;11.068;2022-09-09T07:57:13;12.68;;;5.70;;
29916;SDS011;16786;49.466;11.068;2022-09-09T07:59:42;10.38;;;4.90;;
29916;SDS011;16786;49.466;11.068;2022-09-09T08:02:09;10.23;;;4.50;;
29916;SDS011;16786;49.466;11.068;2022-09-09T08:04:36;7.15;;;4.50;;
29916;SDS011;16786;49.466;11.068;2022-09-09T08:07:04;7.10;;;5.00;;
29916;SDS011;16786;49.466;11.068;2022-09-09T08:09:38;9.25;;;5.10;;
29916;SDS011;16786;49.466;11.068;2022-09-09T08:12:12;7.97;;;4.80;;
29916;SDS011;16786;49.466;11.068;2022-09-09T08:14:40;9.13;;;5.53;;
29916;SDS011;16786;49.466;11.068;2022-09-09T08:17:07;10.45;;;4.85;;
29916;SDS011;16786;49.466;11.068;2022-09-09T08:19:34;8.45;;;4.90;;
29916;SDS011;16786;49.466;11.068;2022-09-09T08:22:07;6.75;;;4.40;;
29916;SDS011;16786;49.466;11.068;2022-09-09T08:24:38;7.63;;;4.45;;
29916;SDS011;16786;49.466;11.068;2022-09-09T08:27:06;5.60;;;4.03;;
29916;SDS011;16786;49.466;11.068;2022-09-09T08:29:33;6.88;;;4.45;;
29916;SDS011;16786;49.466;11.068;2022-09-09T08:32:02;4.70;;;4.20;;
29916;SDS011;16786;49.466;11.068;2022-09-09T08:34:30;5.28;;;4.18;;
29916;SDS011;16786;49.466;11.068;2022-09-09T08:37:02;5.28;;;3.60;;
29916;SDS011;16786;49.466;11.068;2022-09-09T08:39:38;6.75;;;3.83;;
29916;SDS011;16786;49.466;11.068;2022-09-09T08:53:28;4.55;;;3.92;;
29916;SDS011;16786;49.466;11.068;2022-09-09T08:56:04;5.82;;;3.78;;
29916;SDS011;16786;49.466;11.068;2022-09-09T08:58:48;4.95;;;4.00;;
29916;SDS011;16786;49.466;11.068;2022-09-09T09:04:29;5.22;;;3.60;;
29916;SDS011;16786;49.466;11.068;2022-09-09T09:13:20;5.10;;;3.55;;
29916;SDS011;16786;49.466;11.068;2022-09-09T09:19:00;7.15;;;3.75;;
29916;SDS011;16786;49.466;11.068;2022-09-09T09:21:38;3.85;;;3.40;;
29916;SDS011;16786;49.466;11.068;2022-09-09T09:24:31;5.45;;;3.80;;
29916;SDS011;16786;49.466;11.068;2022-09-09T09:27:36;5.47;;;3.45;;
29916;SDS011;16786;49.466;11.068;2022-09-09T09:30:17;5.25;;;3.67;;
29916;SDS011;16786;49.466;11.068;2022-09-09T09:33:15;5.53;;;3.72;;
29916;SDS011;16786;49.466;11.068;2022-09-09T09:35:49;5.35;;;3.97;;
29916;SDS011;16786;49.466;11.068;2022-09-09T09:38:19;5.25;;;3.75;;
29916;SDS011;16786;49.466;11.068;2022-09-09T09:41:09;5.75;;;3.90;;
29916;SDS011;16786;49.466;11.068;2022-09-09T09:43:37;6.05;;;3.90;;
29916;SDS011;16786;49.466;11.068;2022-09-09T09:46:21;8.05;;;3.80;;
29916;SDS011;16786;49.466;11.068;2022-09-09T09:49:03;6.18;;;3.97;;
29916;SDS011;16786;49.466;11.068;2022-09-09T09:51:33;8.13;;;4.47;;
29916;SDS011;16786;49.466;11.068;2022-09-09T09:56:41;7.25;;;4.18;;
29916;SDS011;16786;49.466;11.068;2022-09-09T09:59:20;5.15;;;4.05;;
29916;SDS011;16786;49.466;11.068;2022-09-09T10:04:40;4.60;;;4.07;;
29916;SDS011;16786;49.466;11.068;2022-09-09T10:07:17;5.35;;;4.82;;
29916;SDS011;16786;49.466;11.068;2022-09-09T10:09:51;4.63;;;4.20;;
29916;SDS011;16786;49.466;11.068;2022-09-09T10:20:59;8.05;;;4.32;;
29916;SDS011;16786;49.466;11.068;2022-09-09T10:52:04;5.07;;;4.00;;
29916;SDS011;16786;49.466;11.068;2022-09-09T11:00:10;6.43;;;4.22;;
29916;SDS011;16786;49.466;11.068;2022-09-09T11:02:43;4.80;;;3.83;;
29916;SDS011;16786;49.466;11.068;2022-09-09T11:05:17;4.38;;;3.90;;
29916;SDS011;16786;49.466;11.068;2022-09-09T11:10:34;4.85;;;3.75;;
29916;SDS011;16786;49.466;11.068;2022-09-09T11:15:56;6.15;;;4.00;;
29916;SDS011;16786;49.466;11.068;2022-09-09T11:18:28;6.32;;;4.53;;
29916;SDS011;16786;49.466;11.068;2022-09-09T11:20:59;5.82;;;4.03;;
29916;SDS011;16786;49.466;11.068;2022-09-09T11:23:39;8.80;;;4.45;;
29916;SDS011;16786;49.466;11.068;2022-09-09T11:26:12;6.00;;;4.13;;
29916;SDS011;16786;49.466;11.068;2022-09-09T11:29:02;4.55;;;3.80;;
29916;SDS011;16786;49.466;11.068;2022-09-09T11:38:12;6.82;;;4.10;;
29916;SDS011;16786;49.466;11.068;2022-09-09T11:40:39;5.05;;;4.00;;
29916;SDS011;16786;49.466;11.068;2022-09-09T11:45:55;7.03;;;4.05;;
29916;SDS011;16786;49.466;11.068;2022-09-09T11:48:34;5.95;;;4.65;;
29916;SDS011;16786;49.466;11.068;2022-09-09T11:53:50;5.35;;;4.45;;
29916;SDS011;16786;49.466;11.068;2022-09-09T11:56:29;6.32;;;4.40;;
29916;SDS011;16786;49.466;11.068;2022-09-09T12:06:58;5.18;;;4.22;;
29916;SDS011;16786;49.466;11.068;2022-09-09T12:09:31;5.60;;;4.50;;
29916;SDS011;16786;49.466;11.068;2022-09-09T12:19:43;6.97;;;4.22;;
29916;SDS011;16786;49.466;11.068;2022-09-09T12:24:52;5.13;;;4.30;;
29916;SDS011;16786;49.466;11.068;2022-09-09T12:27:44;5.30;;;4.50;;
29916;SDS011;16786;49.466;11.068;2022-09-09T12:30:19;4.97;;;4.10;;
29916;SDS011;16786;49.466;11.068;2022-09-09T12:32:48;5.45;;;4.95;;
29916;SDS011;16786;49.466;11.068;2022-09-09T12:35:28;5.82;;;4.30;;
29916;SDS011;16786;49.466;11.068;2022-09-09T12:37:58;4.68;;;4.28;;
29916;SDS011;16786;49.466;11.068;2022-09-09T12:40:30;4.97;;;4.57;;
29916;SDS011;16786;49.466;11.068;2022-09-09T12:43:02;5.28;;;4.60;;
29916;SDS011;16786;49.466;11.068;2022-09-09T12:45:43;5.20;;;4.70;;
29916;SDS011;16786;49.466;11.068;2022-09-09T12:48:11;5.28;;;4.78;;
29916;SDS011;16786;49.466;11.068;2022-09-09T12:50:46;5.30;;;4.75;;
29916;SDS011;16786;49.466;11.068;2022-09-09T12:56:01;6.07;;;4.65;;
29916;SDS011;16786;49.466;11.068;2022-09-09T12:58:35;7.45;;;4.90;;
29916;SDS011;16786;49.466;11.068;2022-09-09T13:01:05;5.00;;;4.50;;
29916;SDS011;16786;49.466;11.068;2022-09-09T13:03:33;7.53;;;5.18;;
29916;SDS011;16786;49.466;11.068;2022-09-09T13:06:20;12.23;;;5.38;;
29916;SDS011;16786;49.466;11.068;2022-09-09T13:08:56;5.13;;;4.40;;
29916;SDS011;16786;49.466;11.068;2022-09-09T13:14:18;5.10;;;4.60;;
29916;SDS011;16786;49.466;11.068;2022-09-09T13:16:55;6.55;;;4.97;;
29916;SDS011;16786;49.466;11.068;2022-09-09T13:19:24;6.32;;;5.00;;
29916;SDS011;16786;49.466;11.068;2022-09-09T13:21:55;5.20;;;4.72;;
29916;SDS011;16786;49.466;11.068;2022-09-09T13:24:32;6.07;;;4.32;;
29916;SDS011;16786;49.466;11.068;2022-09-09T13:27:02;6.72;;;4.45;;
29916;SDS011;16786;49.466;11.068;2022-09-09T13:29:51;5.68;;;4.50;;
29916;SDS011;16786;49.466;11.068;2022-09-09T13:32:24;4.72;;;4.32;;
29916;SDS011;16786;49.466;11.068;2022-09-09T13:35:00;5.78;;;4.30;;
29916;SDS011;16786;49.466;11.068;2022-09-09T13:37:38;5.05;;;4.53;;
29916;SDS011;16786;49.466;11.068;2022-09-09T13:40:19;5.97;;;4.90;;
29916;SDS011;16786;49.466;11.068;2022-09-09T13:42:52;5.45;;;4.75;;
29916;SDS011;16786;49.466;11.068;2022-09-09T13:45:23;5.95;;;5.22;;
29916;SDS011;16786;49.466;11.068;2022-09-09T13:47:55;5.30;;;4.55;;
29916;SDS011;16786;49.466;11.068;2022-09-09T13:52:57;5.55;;;4.70;;
29916;SDS011;16786;49.466;11.068;2022-09-09T13:55:26;5.32;;;4.50;;
29916;SDS011;16786;49.466;11.068;2022-09-09T14:00:29;5.32;;;4.82;;
29916;SDS011;16786;49.466;11.068;2022-09-09T14:02:58;5.10;;;4.70;;
29916;SDS011;16786;49.466;11.068;2022-09-09T14:05:30;4.90;;;4.50;;
29916;SDS011;16786;49.466;11.068;2022-09-09T14:07:59;5.00;;;4.60;;
29916;SDS011;16786;49.466;11.068;2022-09-09T14:10:27;5.53;;;4.97;;
29916;SDS011;16786;49.466;11.068;2022-09-09T14:12:54;6.63;;;4.60;;
29916;SDS011;16786;49.466;11.068;2022-09-09T14:15:22;5.55;;;4.57;;
29916;SDS011;16786;49.466;11.068;2022-09-09T14:17:49;5.53;;;5.00;;
29916;SDS011;16786;49.466;11.068;2022-09-09T14:20:18;5.50;;;5.00;;
29916;SDS011;16786;49.466;11.068;2022-09-09T14:22:46;6.30;;;4.95;;
29916;SDS011;16786;49.466;11.068;2022-09-09T14:25:13;5.80;;;5.10;;
29916;SDS011;16786;49.466;11.068;2022-09-09T14:27:40;6.60;;;4.88;;
29916;SDS011;16786;49.466;11.068;2022-09-09T14:30:09;6.30;;;5.07;;
29916;SDS011;16786;49.466;11.068;2022-09-09T14:32:36;4.90;;;4.50;;
29916;SDS011;16786;49.466;11.068;2022-09-09T14:35:04;6.53;;;5.15;;
29916;SDS011;16786;49.466;11.068;2022-09-09T14:37:31;6.60;;;5.60;;
29916;SDS011;16786;49.466;11.068;2022-09-09T14:39:58;5.93;;;4.65;;
29916;SDS011;16786;49.466;11.068;2022-09-09T14:42:26;9.88;;;4.90;;
29916;SDS011;16786;49.466;11.068;2022-09-09T14:44:53;5.90;;;5.30;;
29916;SDS011;16786;49.466;11.068;2022-09-09T14:47:20;7.00;;;5.25;;
29916;SDS011;16786;49.466;11.068;2022-09-09T14:49:48;7.07;;;5.18;;
29916;SDS011;16786;49.466;11.068;2022-09-09T14:52:19;8.25;;;5.57;;
29916;SDS011;16786;49.466;11.068;2022-09-09T14:54:46;7.88;;;5.35;;
29916;SDS011;16786;49.466;11.068;2022-09-09T14:57:14;8.80;;;4.70;;
29916;SDS011;16786;49.466;11.068;2022-09-09T14:59:41;5.47;;;4.90;;
29916;SDS011;16786;49.466;11.068;2022-09-09T15:02:08;6.85;;;4.63;;
29916;SDS011;16786;49.466;11.068;2022-09-09T15:04:36;5.75;;;4.63;;
29916;SDS011;16786;49.466;11.068;2022-09-09T15:07:04;4.95;;;4.50;;
29916;SDS011;16786;49.466;11.068;2022-09-09T15:09:31;7.72;;;4.82;;
29916;SDS011;16786;49.466;11.068;2022-09-09T15:11:58;8.32;;;4.95;;
29916;SDS011;16786;49.466;11.068;2022-09-09T15:14:25;6.15;;;4.68;;
29916;SDS011;16786;49.466;11.068;2022-09-09T15:16:53;6.70;;;4.93;;
29916;SDS011;16786;49.466;11.068;2022-09-09T15:19:20;7.40;;;4.93;;
29916;SDS011;16786;49.466;11.068;2022-09-09T15:21:47;5.15;;;4.20;;
29916;SDS011;16786;49.466;11.068;2022-09-09T15:24:15;5.20;;;4.57;;
29916;SDS011;16786;49.466;11.068;2022-09-09T15:26:43;5.40;;;4.75;;
29916;SDS011;16786;49.466;11.068;2022-09-09T15:29:10;6.93;;;5.00;;
29916;SDS011;16786;49.466;11.068;2022-09-09T15:31:38;6.40;;;5.10;;
29916;SDS011;16786;49.466;11.068;2022-09-09T15:34:06;6.50;;;4.75;;
29916;SDS011;16786;49.466;11.068;2022-09-09T15:36:35;5.82;;;5.00;;
29916;SDS011;16786;49.466;11.068;2022-09-09T15:39:08;6.60;;;4.60;;
29916;SDS011;16786;49.466;11.068;2022-09-09T15:41:39;5.90;;;4.82;;
29916;SDS011;16786;49.466;11.068;2022-09-09T15:44:07;8.15;;;5.35;;
29916;SDS011;16786;49.466;11.068;2022-09-09T15:46:42;5.70;;;5.05;;
29916;SDS011;16786;49.466;11.068;2022-09-09T15:51:41;6.60;;;4.90;;
29916;SDS011;16786;49.466;11.068;2022-09-09T15:54:11;6.50;;;4.53;;
29916;SDS011;16786;49.466;11.068;2022-09-09T15:56:45;4.80;;;4.38;;
29916;SDS011;16786;49.466;11.068;2022-09-09T15:59:14;4.60;;;4.17;;
29916;SDS011;16786;49.466;11.068;2022-09-09T16:01:42;4.90;;;4.40;;
29916;SDS011;16786;49.466;11.068;2022-09-09T16:04:10;4.60;;;4.20;;
29916;SDS011;16786;49.466;11.068;2022-09-09T16:06:38;10.98;;;9.70;;
29916;SDS011;16786;49.466;11.068;2022-09-09T16:09:06;5.05;;;4.53;;
29916;SDS011;16786;49.466;11.068;2022-09-09T16:11:35;4.93;;;4.53;;
29916;SDS011;16786;49.466;11.068;2022-09-09T16:14:03;4.63;;;4.20;;
29916;SDS011;16786;49.466;11.068;2022-09-09T16:16:33;4.60;;;4.20;;
29916;SDS011;16786;49.466;11.068;2022-09-09T16:19:05;4.40;;;4.10;;
29916;SDS011;16786;49.466;11.068;2022-09-09T16:21:35;5.65;;;4.80;;
29916;SDS011;16786;49.466;11.068;2022-09-09T16:24:04;4.40;;;4.00;;
29916;SDS011;16786;49.466;11.068;2022-09-09T16:26:33;4.55;;;4.15;;
29916;SDS011;16786;49.466;11.068;2022-09-09T16:29:02;4.65;;;4.25;;
29916;SDS011;16786;49.466;11.068;2022-09-09T16:31:30;4.95;;;4.45;;
29916;SDS011;16786;49.466;11.068;2022-09-09T16:36:30;4.60;;;4.20;;
29916;SDS011;16786;49.466;11.068;2022-09-09T16:39:02;6.13;;;4.30;;
29916;SDS011;16786;49.466;11.068;2022-09-09T16:41:32;6.10;;;5.50;;
29916;SDS011;16786;49.466;11.068;2022-09-09T16:44:03;5.23;;;4.40;;
29916;SDS011;16786;49.466;11.068;2022-09-09T16:46:34;4.32;;;3.92;;
29916;SDS011;16786;49.466;11.068;2022-09-09T16:49:03;8.73;;;7.88;;
29916;SDS011;16786;49.466;11.068;2022-09-09T16:51:33;7.72;;;6.35;;
29916;SDS011;16786;49.466;11.068;2022-09-09T16:54:08;4.38;;;3.97;;
29916;SDS011;16786;49.466;11.068;2022-09-09T16:56:37;5.88;;;4.68;;
29916;SDS011;16786;49.466;11.068;2022-09-09T16:59:09;6.28;;;4.68;;
29916;SDS011;16786;49.466;11.068;2022-09-09T17:01:44;4.35;;;4.00;;
29916;SDS011;16786;49.466;11.068;2022-09-09T17:04:19;5.18;;;4.43;;
29916;SDS011;16786;49.466;11.068;2022-09-09T17:06:51;4.88;;;4.47;;
29916;SDS011;16786;49.466;11.068;2022-09-09T17:09:20;4.60;;;4.20;;
29916;SDS011;16786;49.466;11.068;2022-09-09T17:11:49;4.80;;;4.40;;
29916;SDS011;16786;49.466;11.068;2022-09-09T17:14:20;5.53;;;4.50;;
29916;SDS011;16786;49.466;11.068;2022-09-09T17:16:48;5.95;;;4.90;;
29916;SDS011;16786;49.466;11.068;2022-09-09T17:19:16;5.00;;;4.50;;
29916;SDS011;16786;49.466;11.068;2022-09-09T17:21:43;7.97;;;6.25;;
29916;SDS011;16786;49.466;11.068;2022-09-09T17:24:33;4.80;;;4.40;;
29916;SDS011;16786;49.466;11.068;2022-09-09T17:27:01;6.15;;;4.00;;
29916;SDS011;16786;49.466;11.068;2022-09-09T17:29:28;4.90;;;4.50;;
29916;SDS011;16786;49.466;11.068;2022-09-09T17:31:56;5.15;;;4.75;;
29916;SDS011;16786;49.466;11.068;2022-09-09T17:34:23;5.07;;;4.53;;
29916;SDS011;16786;49.466;11.068;2022-09-09T17:36:51;10.18;;;4.78;;
29916;SDS011;16786;49.466;11.068;2022-09-09T17:39:19;5.10;;;4.45;;
29916;SDS011;16786;49.466;11.068;2022-09-09T17:41:46;5.93;;;4.60;;
29916;SDS011;16786;49.466;11.068;2022-09-09T17:44:15;5.60;;;4.30;;
29916;SDS011;16786;49.466;11.068;2022-09-09T17:46:42;5.22;;;4.57;;
29916;SDS011;16786;49.466;11.068;2022-09-09T17:49:11;4.00;;;3.70;;
29916;SDS011;16786;49.466;11.068;2022-09-09T17:51:41;4.70;;;4.00;;
29916;SDS011;16786;49.466;11.068;2022-09-09T17:54:16;4.75;;;3.70;;
29916;SDS011;16786;49.466;11.068;2022-09-09T17:56:46;4.95;;;4.45;;
29916;SDS011;16786;49.466;11.068;2022-09-09T17:59:14;5.60;;;4.03;;
29916;SDS011;16786;49.466;11.068;2022-09-09T18:01:44;4.50;;;4.10;;
29916;SDS011;16786;49.466;11.068;2022-09-09T18:04:13;5.60;;;4.38;;
29916;SDS011;16786;49.466;11.068;2022-09-09T18:06:43;5.18;;;4.60;;
29916;SDS011;16786;49.466;11.068;2022-09-09T18:09:14;6.35;;;3.95;;
29916;SDS011;16786;49.466;11.068;2022-09-09T18:11:47;5.25;;;4.07;;